Payson, AZ

9:26 AM MST on September 20, 2014 (GMT -0700)
Manzanita Hills | Change Station
CLOSE
Current Station
Personal Weather Station
Location: Payson, AZ
Elevation: 4885 ft
Nearby Weather Stations

Elev 4885 ft 34.24 °N, 111.35 °W | Updated 10 seconds ago

Mostly Cloudy
Mostly Cloudy
74.9 °F
Feels Like 77 °F
N
4.0
Wind Variable Wind from SSW
Gusts 8.0 mph

Today
High -- | Low -- °F
--% Chance of Precip.
Yesterday
High -- | Low -- °F
Precip. -- in
6:12 AM 6:24 PM
Waning Crescent, 11% visible
Pressure 29.92 in
Visibility 10.0 miles
Clouds Few 6000 ft
Scattered Clouds 11000 ft
Heat Index 77 °F
Dew Point 60 °F
Humidity 60%
Rainfall 0.00 in
Snow Depth 0 in , 0 in , 0 in
UV 5.3 out of 12
Pollen 5.50 out of 12
Ozone Good
PM2.5 Moderate
Flu Activity Not available.
METAR KPRC 201553Z 00000KT 10SM FEW060 SCT110 23/07 A3016 RMK AO2 SLP131 T02280072

More Conditions Fewer Conditions

Pressure 29.92 in
Visibility 10.0 miles
Clouds Few 6000 ft
Scattered Clouds 11000 ft
Heat Index 77 °F
Dew Point 60 °F
Humidity 60%
Rainfall 0.00 in
Snow Depth 0 in , 0 in , 0 in
UV 5.3 out of 12
Pollen 5.50 out of 12
Ozone Good
PM2.5 Moderate
Flu Activity Not available.
METAR KPRC 201553Z 00000KT 10SM FEW060 SCT110 23/07 A3016 RMK AO2 SLP131 T02280072

More Conditions Fewer Conditions

10-Day Weather Forecast

Almanac

Astronomy

Sep. 20, 2014 Rise Set
Actual Time 6:12 AM MST 6:24 PM MST
Civil Twilight 5:47 AM MST 6:49 PM MST
Nautical Twilight 5:17 AM MST 7:19 PM MST
Astronomical Twilight 4:48 AM MST 7:48 PM MST
Moon 3:01 AM MST 4:24 PM MST
Length of Visible Light 13h 02m
Length of Day
12h 12m
Tomorrow will be 2m 7s shorter.
Waning Crescent, 11% of the Moon is Illuminated
Today
Waning Crescent
Sep 24
New
Oct 1
First Quarter
Oct 8
Full
Oct 15
Last Quarter

Today's Extremes

State Highs State Lows

Community

WunderPhotos

Upload Photos

1,754,891 photos uploaded!

Nearby

Air Quality

  Air Quality AQ Index Pollutant
Yesterday Good
OZONE
Yesterday Good
PM10
Current Moderate
PM2.5
Current Good
OZONE
Saturday Moderate
OZONE
Saturday Good
PM10
Saturday Good
CO
Sunday Moderate
OZONE
Sunday Good
PM10
Sunday Good
CO

Snow Depth

Station Depth Elevation
White Horse Lake 0 in 7180 ft
Workman Creek 0 in 6900 ft
Snowslide Canyon 0 in 9730 ft
Promontory 0 in 7930 ft
Fry 0 in 7200 ft

Earthquake Activity

City Distance Mag. Time & Date
No recent earthquake activity has been reported nearby.
Minimum magnitude displayed is 2.5.

Coastal Water Temperatures

Place Temperature
No Stations Reporting

Nearby Weather Stations